Time;durP1;ratioP1;P1;durP2;ratioP2;P2;SDS_P1;SDS_P2;PMS_P1;PMS_P2;Temp;Humidity;BMP_temperature;BMP_pressure;BME280_temperature;BME280_humidity;BME280_pressure;Samples;Min_cycle;Max_cycle;Signal;HPM_P1;HPM_P2
2021/12/27 15:30:31;;;;;;;27.92;19.52;;;24.40;72.40;;;;;;5087428;27;20431;-74
2021/12/27 15:32:57;;;;;;;11.90;6.78;;;24.30;73.30;;;;;;5088146;28;20098;-74
2021/12/27 15:35:25;;;;;;;8.63;2.75;;;24.40;73.40;;;;;;5086910;28;20382;-74
2021/12/27 15:37:55;;;;;;;7.22;1.80;;;24.40;73.30;;;;;;5085176;28;21632;-74
2021/12/27 15:40:22;;;;;;;4.65;2.33;;;24.40;72.60;;;;;;5089777;28;20020;-74
2021/12/27 15:42:51;;;;;;;17.33;2.72;;;24.50;72.50;;;;;;5094572;28;20027;-74
2021/12/27 15:45:21;;;;;;;9.70;1.90;;;24.40;72.50;;;;;;5092722;28;20031;-75
2021/12/27 15:47:48;;;;;;;10.18;2.60;;;24.40;72.20;;;;;;5090758;28;20031;-72
2021/12/27 15:50:16;;;;;;;7.30;2.35;;;24.40;72.50;;;;;;5085136;28;20040;-74
2021/12/27 15:52:44;;;;;;;11.73;6.15;;;24.30;72.40;;;;;;5082441;28;20048;-73
2021/12/27 15:55:13;;;;;;;7.88;3.42;;;24.30;72.50;;;;;;5088516;28;20028;-73
2021/12/27 15:57:40;;;;;;;6.20;2.70;;;24.30;72.90;;;;;;5088493;28;20017;-74
2021/12/27 16:00:11;;;;;;;11.20;3.78;;;24.30;72.50;;;;;;5084248;28;20023;-73
2021/12/27 16:02:38;;;;;;;5.82;2.60;;;24.40;72.70;;;;;;5082277;28;20401;-73
2021/12/27 16:05:05;;;;;;;11.40;2.30;;;24.40;72.50;;;;;;5083745;28;20104;-74
2021/12/27 16:07:32;;;;;;;10.38;2.15;;;24.30;72.20;;;;;;5086773;28;20483;-74
2021/12/27 16:09:59;;;;;;;5.40;1.88;;;24.30;72.90;;;;;;5080893;28;20037;-74
2021/12/27 16:12:26;;;;;;;6.60;2.20;;;24.30;72.90;;;;;;5082168;28;20032;-74
2021/12/27 16:14:52;;;;;;;8.73;2.45;;;24.30;72.70;;;;;;5080699;28;20100;-71
2021/12/27 16:17:19;;;;;;;6.18;2.05;;;24.30;72.50;;;;;;5078720;28;20511;-72
2021/12/27 16:19:45;;;;;;;6.45;1.80;;;24.20;72.40;;;;;;5074265;28;20032;-75
2021/12/27 16:22:12;;;;;;;6.85;2.17;;;24.10;72.60;;;;;;5070537;28;20074;-74
2021/12/27 16:24:41;;;;;;;7.78;2.33;;;24.00;72.80;;;;;;5069788;28;20532;-74
2021/12/27 16:27:12;;;;;;;10.13;1.52;;;24.00;72.90;;;;;;5072600;28;20036;-75
2021/12/27 16:29:39;;;;;;;8.07;1.92;;;24.10;73.20;;;;;;5071718;28;20049;-73
2021/12/27 16:32:06;;;;;;;8.18;3.03;;;24.00;72.70;;;;;;5071722;28;20016;-73
2021/12/27 16:34:32;;;;;;;4.55;1.23;;;23.90;72.90;;;;;;5070337;28;20012;-75
2021/12/27 16:36:59;;;;;;;5.82;2.13;;;23.90;73.10;;;;;;5075528;28;20016;-75
2021/12/27 16:39:30;;;;;;;10.25;2.20;;;23.80;73.20;;;;;;5086801;28;20052;-75
2021/12/27 16:41:58;;;;;;;10.07;2.22;;;23.90;73.50;;;;;;5077405;28;20494;-74
2021/12/27 16:44:25;;;;;;;6.25;2.80;;;23.90;73.20;;;;;;5068929;28;20020;-74
2021/12/27 16:46:51;;;;;;;6.32;1.63;;;23.80;73.20;;;;;;5077974;28;20070;-75
2021/12/27 16:49:17;;;;;;;7.82;2.42;;;23.80;73.30;;;;;;5069151;28;20135;-74
2021/12/27 16:51:44;;;;;;;3.22;1.80;;;23.80;73.60;;;;;;5065941;28;20021;-75
2021/12/27 16:54:10;;;;;;;9.82;2.38;;;23.70;73.60;;;;;;5067731;28;20024;-75
2021/12/27 16:56:37;;;;;;;4.10;1.95;;;23.70;73.50;;;;;;5071837;28;20099;-74
2021/12/27 16:59:04;;;;;;;8.10;2.25;;;23.70;73.70;;;;;;5071386;28;20115;-75
2021/12/27 17:01:30;;;;;;;5.07;1.60;;;23.80;73.50;;;;;;5070943;28;20506;-72
2021/12/27 17:03:57;;;;;;;7.85;2.05;;;23.70;73.20;;;;;;5071402;28;20095;-74
2021/12/27 17:06:24;;;;;;;5.60;1.52;;;23.60;73.70;;;;;;5066732;28;20390;-73
2021/12/27 17:08:51;;;;;;;9.32;2.15;;;23.50;73.90;;;;;;5068418;28;20119;-74
2021/12/27 17:11:17;;;;;;;9.20;2.22;;;23.40;74.20;;;;;;5064562;28;20052;-73
2021/12/27 17:13:44;;;;;;;5.05;1.55;;;23.50;74.80;;;;;;5070156;28;20499;-73
2021/12/27 17:16:15;;;;;;;6.97;1.80;;;23.40;74.80;;;;;;5067175;28;20051;-73
2021/12/27 17:18:42;;;;;;;6.43;2.63;;;23.40;74.60;;;;;;5072003;28;20384;-72
2021/12/27 17:21:09;;;;;;;10.00;4.82;;;23.30;74.40;;;;;;5068659;28;20024;-73
2021/12/27 17:23:36;;;;;;;21.63;15.38;;;23.30;75.10;;;;;;5070686;28;20040;-73
2021/12/27 17:26:05;;;;;;;22.52;15.40;;;23.20;75.40;;;;;;5070486;28;20025;-72
2021/12/27 17:28:32;;;;;;;13.27;6.68;;;23.30;75.70;;;;;;5073138;28;20491;-73
2021/12/27 17:30:58;;;;;;;8.35;2.65;;;23.40;75.50;;;;;;5082283;28;20021;-72
2021/12/27 17:33:26;;;;;;;16.75;2.72;;;23.50;75.20;;;;;;5070366;28;20121;-72
2021/12/27 17:35:54;;;;;;;17.20;3.13;;;23.60;74.90;;;;;;5073153;28;20514;-72
2021/12/27 17:38:22;;;;;;;7.38;2.15;;;23.70;74.50;;;;;;5084999;28;20028;-71
2021/12/27 17:40:50;;;;;;;21.60;7.82;;;23.70;74.10;;;;;;5077360;28;20033;-72
2021/12/27 17:43:19;;;;;;;35.42;6.38;;;23.80;73.80;;;;;;5076835;28;20028;-73
2021/12/27 17:45:45;;;;;;;10.65;2.15;;;23.80;73.60;;;;;;5089877;28;20028;-72
2021/12/27 17:48:12;;;;;;;14.07;1.88;;;23.90;73.60;;;;;;5047387;28;20183;-72
2021/12/27 17:50:39;;;;;;;13.27;1.98;;;24.00;73.40;;;;;;5070445;28;20458;-72
2021/12/27 17:53:07;;;;;;;6.95;1.60;;;24.00;73.20;;;;;;5065867;28;20122;-72
2021/12/27 17:55:34;;;;;;;8.82;1.90;;;24.00;73.00;;;;;;5066181;28;20468;-71
2021/12/27 17:58:00;;;;;;;7.07;1.80;;;24.00;73.00;;;;;;5068623;28;20029;-77
2021/12/27 18:00:30;;;;;;;8.05;1.55;;;24.00;72.90;;;;;;5071057;28;20024;-73
2021/12/27 18:02:57;;;;;;;7.40;1.88;;;24.00;72.80;;;;;;5065340;28;20020;-73
2021/12/27 18:05:25;;;;;;;4.75;1.98;;;24.00;72.70;;;;;;5088103;28;20025;-74
2021/12/27 18:07:53;;;;;;;8.40;1.55;;;24.00;72.60;;;;;;5076325;28;20044;-74
2021/12/27 18:10:21;;;;;;;13.48;2.45;;;24.00;72.60;;;;;;5071057;28;20078;-78
2021/12/27 18:12:48;;;;;;;18.00;2.70;;;24.10;72.40;;;;;;5071069;28;20123;-81
2021/12/27 18:15:15;;;;;;;50.30;8.27;;;24.10;72.30;;;;;;5068809;28;20024;-77
2021/12/27 18:17:45;;;;;;;41.88;9.50;;;24.10;72.40;;;;;;5072260;28;20036;-75
2021/12/27 18:20:19;;;;;;;33.03;6.40;;;24.10;72.50;;;;;;5071860;28;20024;-73
2021/12/27 18:22:48;;;;;;;11.60;2.10;;;24.00;72.40;;;;;;5069024;28;20640;-77
2021/12/27 18:25:15;;;;;;;18.60;2.35;;;24.00;72.70;;;;;;5066533;28;20380;-77
2021/12/27 18:27:42;;;;;;;13.38;4.53;;;24.00;72.70;;;;;;5071075;28;20031;-78
2021/12/27 18:30:12;;;;;;;15.10;2.28;;;24.00;72.40;;;;;;5069098;28;20037;-77
2021/12/27 18:32:39;;;;;;;6.20;2.67;;;24.00;72.30;;;;;;5068494;28;20055;-77
2021/12/27 18:35:06;;;;;;;6.57;2.55;;;24.00;72.20;;;;;;5088154;28;20383;-76
2021/12/27 18:37:32;;;;;;;5.70;1.48;;;24.00;72.10;;;;;;5070484;28;20099;-74
2021/12/27 18:39:59;;;;;;;10.07;2.25;;;24.00;72.20;;;;;;5076628;28;20486;-74
2021/12/27 18:42:26;;;;;;;5.85;2.13;;;23.90;72.10;;;;;;5068154;28;20028;-73
2021/12/27 18:44:53;;;;;;;6.60;1.80;;;23.90;72.10;;;;;;5072351;28;20032;-73
2021/12/27 18:47:19;;;;;;;17.20;1.90;;;23.90;72.20;;;;;;5077432;28;20028;-75
2021/12/27 18:49:46;;;;;;;11.02;2.00;;;23.90;72.90;;;;;;5074055;28;20028;-74
2021/12/27 18:52:12;;;;;;;23.45;2.50;;;23.90;72.40;;;;;;5071402;28;20020;-74
2021/12/27 18:54:39;;;;;;;10.23;2.78;;;23.90;72.50;;;;;;5070127;28;20493;-74
2021/12/27 18:57:08;;;;;;;19.35;2.88;;;23.90;72.50;;;;;;5069519;28;20020;-74
2021/12/27 18:59:36;;;;;;;12.13;2.65;;;23.90;72.50;;;;;;5071393;28;20055;-73
2021/12/27 19:02:05;;;;;;;8.88;3.08;;;23.80;72.50;;;;;;5071028;28;20027;-74
2021/12/27 19:04:33;;;;;;;6.80;2.58;;;23.80;72.40;;;;;;5070706;28;20024;-72
2021/12/27 19:06:59;;;;;;;7.25;2.55;;;23.80;72.50;;;;;;5069577;28;20020;-75
2021/12/27 19:09:25;;;;;;;7.25;2.55;;;23.80;72.50;;;;;;5071937;28;20043;-74
2021/12/27 19:11:52;;;;;;;5.38;2.78;;;23.80;72.50;;;;;;5073905;28;20716;-72
2021/12/27 19:14:19;;;;;;;6.60;2.42;;;23.70;72.50;;;;;;5069437;28;20027;-75
2021/12/27 19:16:45;;;;;;;8.70;2.70;;;23.70;72.50;;;;;;5071522;28;20043;-74
2021/12/27 19:19:12;;;;;;;13.77;6.53;;;23.70;72.60;;;;;;5064090;28;20564;-76
2021/12/27 19:21:39;;;;;;;24.67;15.25;;;23.70;72.80;;;;;;5076214;28;20070;-73
2021/12/27 19:24:06;;;;;;;16.73;10.27;;;23.70;72.90;;;;;;5070159;28;20028;-72
2021/12/27 19:26:32;;;;;;;9.65;5.07;;;23.70;73.00;;;;;;5073434;28;20025;-74
2021/12/27 19:28:59;;;;;;;7.07;3.65;;;23.70;73.00;;;;;;5074848;28;20046;-72
2021/12/27 19:31:26;;;;;;;8.65;3.25;;;23.60;73.00;;;;;;5068718;28;20336;-72
2021/12/27 19:33:53;;;;;;;7.50;3.17;;;23.60;73.00;;;;;;5070523;28;20020;-75
2021/12/27 19:36:20;;;;;;;9.13;3.95;;;23.60;73.10;;;;;;5077050;28;20063;-74
2021/12/27 19:38:46;;;;;;;4.20;2.65;;;23.60;73.10;;;;;;5066178;28;20135;-74
2021/12/27 19:41:13;;;;;;;7.43;2.63;;;23.60;73.10;;;;;;5069636;28;20023;-75
2021/12/27 19:43:40;;;;;;;6.80;2.20;;;23.60;73.20;;;;;;5074497;28;20020;-75
2021/12/27 19:46:07;;;;;;;4.78;1.95;;;23.60;73.20;;;;;;5070169;28;20029;-74
2021/12/27 19:48:34;;;;;;;4.18;2.10;;;23.60;73.30;;;;;;5070655;28;20066;-75
2021/12/27 19:51:00;;;;;;;7.43;2.75;;;23.50;73.20;;;;;;5072153;28;20020;-75
2021/12/27 19:53:29;;;;;;;9.52;3.10;;;23.60;73.40;;;;;;5070892;28;20566;-75
2021/12/27 19:55:56;;;;;;;7.38;3.13;;;23.50;73.40;;;;;;5063017;28;20039;-76
2021/12/27 19:58:22;;;;;;;12.25;3.15;;;23.50;73.50;;;;;;5071709;28;20547;-75
2021/12/27 20:00:49;;;;;;;12.93;9.02;;;23.50;73.50;;;;;;5077276;28;20509;-74
2021/12/27 20:03:16;;;;;;;16.90;14.90;;;23.50;73.50;;;;;;5070547;28;20028;-78
2021/12/27 20:05:43;;;;;;;18.65;10.63;;;23.50;73.60;;;;;;5069111;28;20017;-76
2021/12/27 20:08:11;;;;;;;8.35;5.88;;;23.50;73.70;;;;;;5070309;28;20027;-76
2021/12/27 20:10:38;;;;;;;8.38;4.43;;;23.50;73.70;;;;;;5076874;28;20052;-75
2021/12/27 20:13:05;;;;;;;10.00;4.15;;;23.50;73.70;;;;;;5071419;28;20021;-76
2021/12/27 20:15:35;;;;;;;5.70;2.90;;;23.50;73.70;;;;;;5075490;28;20035;-77
2021/12/27 20:18:03;;;;;;;10.15;3.90;;;23.40;73.80;;;;;;5074761;28;20104;-77
2021/12/27 20:20:30;;;;;;;13.88;3.22;;;23.50;73.80;;;;;;5080573;28;20024;-76
2021/12/27 20:22:58;;;;;;;8.93;2.28;;;23.40;73.90;;;;;;5074547;28;20469;-77
2021/12/27 20:25:26;;;;;;;8.25;3.10;;;23.40;74.00;;;;;;5073227;28;20107;-76
2021/12/27 20:27:53;;;;;;;7.95;2.63;;;23.40;74.10;;;;;;5074404;28;20021;-76
2021/12/27 20:30:20;;;;;;;16.25;6.38;;;23.40;74.20;;;;;;5072875;28;20052;-75
2021/12/27 20:32:47;;;;;;;17.10;11.57;;;23.40;74.20;;;;;;5071641;28;20107;-76
2021/12/27 20:35:15;;;;;;;21.63;18.77;;;23.40;74.30;;;;;;5077335;28;20047;-76
2021/12/27 20:37:43;;;;;;;38.88;34.60;;;23.40;74.40;;;;;;5082306;28;20085;-78
2021/12/27 20:40:11;;;;;;;26.00;23.25;;;23.50;74.40;;;;;;5079359;28;20031;-77
2021/12/27 20:42:38;;;;;;;19.33;12.73;;;23.50;74.30;;;;;;5078122;28;20024;-77
2021/12/27 20:45:10;;;;;;;14.60;8.95;;;23.40;74.20;;;;;;5076480;28;20552;-77
2021/12/27 20:47:36;;;;;;;8.45;5.20;;;23.40;74.10;;;;;;5070255;28;20032;-77
2021/12/27 20:50:04;;;;;;;7.40;3.28;;;23.50;74.20;;;;;;5070645;28;20033;-78
2021/12/27 20:52:31;;;;;;;6.88;2.70;;;23.50;74.20;;;;;;5080547;28;20515;-77
2021/12/27 20:54:57;;;;;;;8.27;2.08;;;23.50;74.00;;;;;;5067043;28;20061;-77
2021/12/27 20:57:27;;;;;;;11.23;2.75;;;23.50;73.80;;;;;;5078328;28;20021;-78
2021/12/27 20:59:56;;;;;;;7.82;2.22;;;23.50;73.80;;;;;;5073133;28;20059;-77
2021/12/27 21:02:22;;;;;;;6.32;2.33;;;23.40;73.60;;;;;;5077820;28;20040;-77
2021/12/27 21:04:50;;;;;;;8.15;1.92;;;23.40;73.50;;;;;;5069221;28;20140;-76
2021/12/27 21:07:17;;;;;;;5.28;1.95;;;23.40;73.40;;;;;;5076786;28;20355;-77
2021/12/27 21:09:43;;;;;;;3.35;1.20;;;23.40;73.30;;;;;;5076812;28;20056;-77
2021/12/27 21:12:10;;;;;;;4.68;1.45;;;23.40;73.30;;;;;;5073164;28;20099;-77
2021/12/27 21:14:36;;;;;;;4.95;1.50;;;23.40;73.20;;;;;;5072086;28;20020;-77
2021/12/27 21:17:03;;;;;;;4.13;1.83;;;23.40;73.20;;;;;;5068913;28;20025;-77
2021/12/27 21:19:30;;;;;;;6.70;1.40;;;23.30;73.20;;;;;;5074898;28;20020;-77
2021/12/27 21:21:56;;;;;;;8.23;1.58;;;23.30;73.20;;;;;;5071985;28;20052;-77
2021/12/27 21:24:23;;;;;;;10.00;2.42;;;23.30;73.20;;;;;;5077549;28;20025;-76
2021/12/27 21:26:49;;;;;;;9.55;1.65;;;23.30;73.40;;;;;;5073668;28;20379;-78
2021/12/27 21:29:18;;;;;;;9.52;1.77;;;23.30;73.60;;;;;;5074718;28;20047;-77
2021/12/27 21:31:44;;;;;;;3.42;1.30;;;23.30;73.60;;;;;;5073124;28;20031;-78
2021/12/27 21:34:11;;;;;;;12.63;1.83;;;23.20;73.50;;;;;;5073755;28;20056;-77
2021/12/27 21:36:39;;;;;;;4.47;2.25;;;23.20;73.50;;;;;;5077202;28;20065;-78
2021/12/27 21:39:05;;;;;;;4.25;1.75;;;23.20;73.60;;;;;;5070993;28;20370;-77
2021/12/27 21:41:32;;;;;;;2.65;1.65;;;23.20;73.70;;;;;;5079933;28;20135;-77
2021/12/27 21:43:59;;;;;;;4.90;1.70;;;23.20;73.80;;;;;;5072591;28;20092;-77
2021/12/27 21:46:25;;;;;;;18.40;3.15;;;23.20;74.00;;;;;;5075486;28;20020;-77
2021/12/27 21:48:52;;;;;;;11.50;2.10;;;23.20;73.90;;;;;;5074218;28;20533;-79
2021/12/27 21:51:18;;;;;;;14.65;2.90;;;23.20;74.20;;;;;;5079370;28;20505;-78
2021/12/27 21:53:45;;;;;;;7.65;1.95;;;23.20;74.30;;;;;;5070711;28;20025;-78
2021/12/27 21:56:12;;;;;;;7.30;1.90;;;23.20;74.30;;;;;;5074073;28;20480;-78
2021/12/27 21:58:39;;;;;;;5.63;1.55;;;23.20;74.30;;;;;;5072487;28;20029;-78
2021/12/27 22:01:05;;;;;;;4.63;1.70;;;23.20;74.30;;;;;;5077924;28;20031;-78
2021/12/27 22:03:32;;;;;;;7.63;2.10;;;23.20;74.30;;;;;;5070408;28;20020;-78
2021/12/27 22:05:58;;;;;;;5.72;1.63;;;23.20;74.30;;;;;;5067842;28;21665;-77
2021/12/27 22:08:25;;;;;;;8.50;2.15;;;23.20;74.30;;;;;;5072732;28;20060;-78
2021/12/27 22:10:54;;;;;;;6.15;2.22;;;23.10;74.20;;;;;;5074557;28;20386;-78
2021/12/27 22:13:21;;;;;;;8.70;2.55;;;23.20;74.20;;;;;;5073279;28;20043;-77
2021/12/27 22:15:48;;;;;;;6.40;2.97;;;23.20;74.10;;;;;;5076590;28;20434;-77
2021/12/27 22:18:15;;;;;;;4.45;2.22;;;23.20;74.10;;;;;;5074986;28;20021;-78
2021/12/27 22:20:41;;;;;;;5.20;2.22;;;23.10;74.10;;;;;;5074742;28;20139;-77
2021/12/27 22:23:08;;;;;;;5.40;2.55;;;23.10;74.20;;;;;;5074402;28;20020;-78
2021/12/27 22:25:35;;;;;;;5.47;3.42;;;23.10;74.30;;;;;;5076556;28;20957;-79
2021/12/27 22:28:04;;;;;;;4.72;3.28;;;23.10;74.30;;;;;;5077702;28;20024;-81
2021/12/27 22:30:31;;;;;;;10.77;3.50;;;23.10;74.40;;;;;;5073603;28;20036;-79
2021/12/27 22:32:58;;;;;;;11.40;2.53;;;23.10;74.40;;;;;;5070618;28;20018;-78
2021/12/27 22:35:25;;;;;;;8.48;2.72;;;23.10;74.50;;;;;;5078462;28;20063;-78
2021/12/27 22:37:55;;;;;;;3.55;2.20;;;23.10;74.60;;;;;;5065568;28;20028;-79
2021/12/27 22:40:25;;;;;;;13.23;1.70;;;23.10;74.60;;;;;;5071104;28;20097;-78
2021/12/27 22:42:52;;;;;;;7.55;2.08;;;23.10;74.60;;;;;;5076245;28;20039;-80
2021/12/27 22:45:19;;;;;;;6.43;1.67;;;23.10;74.60;;;;;;5076207;28;20052;-78
2021/12/27 22:47:48;;;;;;;9.98;3.10;;;23.10;74.60;;;;;;5073279;28;20070;-79
2021/12/27 22:50:17;;;;;;;6.28;3.05;;;23.10;74.60;;;;;;5073347;28;20566;-77
2021/12/27 22:52:45;;;;;;;10.88;5.28;;;23.10;74.80;;;;;;5085992;28;20028;-77
2021/12/27 22:55:13;;;;;;;14.80;10.10;;;23.10;74.80;;;;;;5077808;28;20016;-78
2021/12/27 22:57:40;;;;;;;18.55;14.63;;;23.10;74.90;;;;;;5072880;28;20552;-78
2021/12/27 23:00:12;;;;;;;28.65;16.67;;;23.10;74.90;;;;;;5069854;28;20032;-78
2021/12/27 23:02:39;;;;;;;23.83;16.95;;;23.10;75.00;;;;;;5075224;28;20544;-77
2021/12/27 23:05:07;;;;;;;18.42;13.20;;;23.10;75.00;;;;;;5070776;28;20020;-76
2021/12/27 23:07:34;;;;;;;12.70;8.98;;;23.10;75.00;;;;;;5073232;28;20107;-77
2021/12/27 23:10:01;;;;;;;14.23;7.78;;;23.10;74.90;;;;;;5068061;28;20069;-77
2021/12/27 23:12:30;;;;;;;14.00;7.60;;;23.10;74.90;;;;;;5072087;28;20028;-77
2021/12/27 23:14:57;;;;;;;11.63;7.40;;;23.10;75.00;;;;;;5069909;28;20540;-76
2021/12/27 23:17:23;;;;;;;14.10;9.40;;;23.10;75.10;;;;;;5067810;28;20028;-76
2021/12/27 23:19:50;;;;;;;15.90;9.45;;;23.10;75.30;;;;;;5071422;28;20403;-77
2021/12/27 23:22:16;;;;;;;12.30;9.30;;;23.10;75.40;;;;;;5072025;28;20024;-77
2021/12/27 23:24:43;;;;;;;16.70;10.20;;;23.10;75.60;;;;;;5077306;28;20497;-77
2021/12/27 23:27:09;;;;;;;17.77;13.02;;;23.10;75.70;;;;;;5070742;28;20402;-76
2021/12/27 23:29:36;;;;;;;16.77;13.40;;;23.10;75.90;;;;;;5073419;28;20064;-77
2021/12/27 23:32:03;;;;;;;17.67;12.25;;;23.10;76.00;;;;;;5067126;28;20035;-76
2021/12/27 23:34:32;;;;;;;15.20;12.15;;;23.10;76.30;;;;;;5070274;28;20447;-76
2021/12/27 23:37:01;;;;;;;16.70;9.35;;;23.00;76.50;;;;;;5064506;28;20020;-76
2021/12/27 23:39:27;;;;;;;9.07;5.70;;;23.10;76.70;;;;;;5073425;28;20024;-76
2021/12/27 23:41:55;;;;;;;8.90;5.07;;;23.10;76.90;;;;;;5074505;28;20544;-76
2021/12/27 23:44:22;;;;;;;6.82;3.50;;;23.10;77.00;;;;;;5071095;28;20042;-76
2021/12/27 23:46:50;;;;;;;8.05;3.10;;;23.10;77.20;;;;;;5070533;28;20149;-77
2021/12/27 23:49:17;;;;;;;4.90;2.47;;;23.10;77.30;;;;;;5069653;28;20051;-76
2021/12/27 23:51:43;;;;;;;4.20;2.08;;;23.00;77.30;;;;;;5074851;28;20067;-76
2021/12/27 23:54:10;;;;;;;4.93;1.75;;;23.00;77.40;;;;;;5074680;28;20085;-76
2021/12/27 23:56:37;;;;;;;4.25;1.38;;;23.00;77.40;;;;;;5072115;28;20053;-78
2021/12/27 23:59:04;;;;;;;5.85;2.55;;;23.00;77.40;;;;;;5077417;28;20062;-77
